createdAt,value
2022-12-23T00:01:32.421Z,8.90
2022-12-23T00:04:02.962Z,8.98
2022-12-23T00:06:33.050Z,8.86
2022-12-23T00:09:03.496Z,8.80
2022-12-23T00:11:33.468Z,8.82
2022-12-23T00:14:21.156Z,8.80
2022-12-23T00:16:54.464Z,8.85
2022-12-23T00:19:24.450Z,8.87
2022-12-23T00:21:54.411Z,8.85
2022-12-23T00:24:24.359Z,8.91
2022-12-23T00:26:54.344Z,8.90
2022-12-23T00:29:24.279Z,8.98
2022-12-23T00:31:56.906Z,9.01
2022-12-23T00:34:27.201Z,9.03
2022-12-23T00:36:57.206Z,9.00
2022-12-23T00:39:52.071Z,9.02
2022-12-23T00:42:37.308Z,8.92
2022-12-23T00:45:18.078Z,9.04
2022-12-23T00:48:03.961Z,9.02
2022-12-23T00:50:37.802Z,8.96
2022-12-23T00:53:08.322Z,9.02
2022-12-23T00:55:38.568Z,9.13
2022-12-23T00:58:08.557Z,9.14
2022-12-23T01:00:51.181Z,9.22
2022-12-23T01:03:36.326Z,9.15
2022-12-23T01:06:06.935Z,9.21
2022-12-23T01:08:36.857Z,9.27
2022-12-23T01:11:08.769Z,9.26
2022-12-23T01:13:40.081Z,9.22
2022-12-23T01:16:17.747Z,9.27
2022-12-23T01:18:50.510Z,9.26
2022-12-23T01:21:20.736Z,9.30
2022-12-23T01:23:50.745Z,9.27
2022-12-23T01:26:20.683Z,9.28
2022-12-23T01:28:50.719Z,9.27
2022-12-23T01:31:20.862Z,9.26
2022-12-23T01:33:53.709Z,9.29
2022-12-23T01:36:25.090Z,9.26
2022-12-23T01:38:55.506Z,9.38
2022-12-23T01:41:41.406Z,9.31
2022-12-23T01:44:55.112Z,9.42
2022-12-23T01:47:36.490Z,9.44
2022-12-23T01:50:17.841Z,9.36
2022-12-23T01:52:54.535Z,9.52
2022-12-23T01:55:29.828Z,9.47
2022-12-23T01:58:09.832Z,9.51
2022-12-23T02:00:54.445Z,9.53
2022-12-23T02:03:37.040Z,9.59
2022-12-23T02:06:24.033Z,9.61
2022-12-23T02:09:06.489Z,9.66
2022-12-23T02:12:18.705Z,9.62
2022-12-23T02:15:26.490Z,9.73
2022-12-23T02:18:13.561Z,9.68
2022-12-23T02:21:34.084Z,9.75
2022-12-23T02:24:51.913Z,9.75
2022-12-23T02:27:31.361Z,9.67
2022-12-23T02:30:43.768Z,9.78
2022-12-23T02:33:44.923Z,9.82
2022-12-23T02:36:35.015Z,9.84
2022-12-23T02:39:11.881Z,9.97
2022-12-23T02:41:54.446Z,9.95
2022-12-23T02:44:36.975Z,9.98
2022-12-23T02:47:17.155Z,9.98
2022-12-23T02:49:55.672Z,9.92
2022-12-23T02:52:35.474Z,10.05
2022-12-23T02:55:13.721Z,10.06
2022-12-23T02:57:50.401Z,10.05
2022-12-23T03:00:22.581Z,10.19
2022-12-23T03:02:55.520Z,10.25
2022-12-23T03:05:31.390Z,10.19
2022-12-23T03:08:07.610Z,10.23
2022-12-23T03:10:57.722Z,10.23
2022-12-23T03:13:51.377Z,10.24
2022-12-23T03:16:31.016Z,10.25
2022-12-23T03:19:17.938Z,10.28
2022-12-23T03:21:57.327Z,10.29
2022-12-23T03:24:40.854Z,10.26
2022-12-23T03:27:18.377Z,10.20
2022-12-23T03:29:59.540Z,10.33
2022-12-23T03:32:35.045Z,10.35
2022-12-23T03:35:12.949Z,10.36
2022-12-23T03:37:49.034Z,10.28
2022-12-23T03:40:26.435Z,10.35
2022-12-23T03:43:03.870Z,10.19
2022-12-23T03:45:41.598Z,10.27
2022-12-23T03:48:22.459Z,10.16
2022-12-23T03:51:01.609Z,10.26
2022-12-23T03:53:37.856Z,10.28
2022-12-23T03:56:15.640Z,10.37
2022-12-23T03:58:54.005Z,10.37
2022-12-23T04:01:41.527Z,10.32
2022-12-23T04:04:21.638Z,10.33
2022-12-23T04:07:03.429Z,10.36
2022-12-23T04:09:33.412Z,10.45
2022-12-23T04:12:03.906Z,10.49
2022-12-23T04:14:36.796Z,10.46
2022-12-23T04:17:06.829Z,10.41
2022-12-23T04:19:36.829Z,10.33
2022-12-23T04:22:09.460Z,10.25
2022-12-23T04:24:39.463Z,10.29
2022-12-23T04:27:10.121Z,10.28
2022-12-23T04:29:40.083Z,10.33
2022-12-23T04:32:11.252Z,10.31
2022-12-23T04:34:41.421Z,10.44
2022-12-23T04:37:14.075Z,10.45
2022-12-23T04:39:44.083Z,10.45
2022-12-23T04:42:14.077Z,10.50
2022-12-23T04:44:44.035Z,10.47
2022-12-23T04:47:14.065Z,10.50
2022-12-23T04:49:44.083Z,10.46
2022-12-23T04:52:16.873Z,10.55
2022-12-23T04:54:47.551Z,10.54
2022-12-23T04:57:18.227Z,10.48
2022-12-23T04:59:48.240Z,10.50
2022-12-23T05:02:18.300Z,10.63
2022-12-23T05:04:48.389Z,10.51
2022-12-23T05:07:20.957Z,10.40
2022-12-23T05:09:50.948Z,10.48
2022-12-23T05:12:20.876Z,10.59
2022-12-23T05:14:50.840Z,10.51
2022-12-23T05:17:20.814Z,10.58
2022-12-23T05:19:50.824Z,10.62
2022-12-23T05:22:23.451Z,10.66
2022-12-23T05:24:53.412Z,10.59
2022-12-23T05:27:23.420Z,10.66
2022-12-23T05:29:53.444Z,10.72
2022-12-23T05:32:23.689Z,10.80
2022-12-23T05:34:53.649Z,10.83
2022-12-23T05:37:27.063Z,10.81
2022-12-23T05:39:57.025Z,10.79
2022-12-23T05:42:27.224Z,10.76
2022-12-23T05:44:57.181Z,10.83
2022-12-23T05:47:27.229Z,10.80
2022-12-23T05:49:57.222Z,10.87
2022-12-23T05:52:29.843Z,10.83
2022-12-23T05:54:59.857Z,10.85
2022-12-23T05:57:30.382Z,10.87
2022-12-23T06:00:00.366Z,10.89
2022-12-23T06:02:30.474Z,10.93
2022-12-23T06:05:00.633Z,10.98
2022-12-23T06:07:33.193Z,11.01
2022-12-23T06:10:03.177Z,11.00
2022-12-23T06:12:33.135Z,11.01
2022-12-23T06:15:03.132Z,10.96
2022-12-23T06:17:33.243Z,11.01
2022-12-23T06:20:03.255Z,10.96
2022-12-23T06:22:36.005Z,10.93
2022-12-23T06:25:06.074Z,10.94
2022-12-23T06:27:36.082Z,10.98
2022-12-23T06:30:06.555Z,10.92
2022-12-23T06:32:38.835Z,10.77
2022-12-23T06:35:10.629Z,10.85
2022-12-23T06:37:43.169Z,10.81
2022-12-23T06:40:15.334Z,10.68
2022-12-23T06:42:45.313Z,10.71
2022-12-23T06:45:15.713Z,10.76
2022-12-23T06:47:45.678Z,10.70
2022-12-23T06:50:15.694Z,10.68
2022-12-23T06:52:49.169Z,10.71
2022-12-23T06:55:20.263Z,10.67
2022-12-23T06:57:50.200Z,10.72
2022-12-23T07:00:21.218Z,10.78
2022-12-23T07:02:51.517Z,10.80
2022-12-23T07:05:21.800Z,10.78
2022-12-23T07:07:54.372Z,10.74
2022-12-23T07:10:24.366Z,10.70
2022-12-23T07:12:54.345Z,10.71
2022-12-23T07:15:24.511Z,10.73
2022-12-23T07:17:54.506Z,10.71
2022-12-23T07:20:24.552Z,10.66
2022-12-23T07:22:57.500Z,10.49
2022-12-23T07:25:27.931Z,10.41
2022-12-23T07:27:58.080Z,10.25
2022-12-23T07:30:29.226Z,10.29
2022-12-23T07:32:59.212Z,10.20
2022-12-23T07:35:29.208Z,10.19
2022-12-23T07:38:01.802Z,10.34
2022-12-23T07:40:31.834Z,10.34
2022-12-23T07:43:02.763Z,10.42
2022-12-23T07:45:33.305Z,10.58
2022-12-23T07:48:04.338Z,10.42
2022-12-23T07:50:34.391Z,10.42
2022-12-23T07:53:06.963Z,10.65
2022-12-23T07:55:36.930Z,10.82
2022-12-23T07:58:06.889Z,10.90
2022-12-23T08:00:36.935Z,10.82
2022-12-23T08:03:07.248Z,10.83
2022-12-23T08:05:37.348Z,10.87
2022-12-23T08:08:12.021Z,10.89
2022-12-23T08:10:48.021Z,10.92
2022-12-23T08:13:18.655Z,10.91
2022-12-23T08:15:51.439Z,10.93
2022-12-23T08:18:21.598Z,10.96
2022-12-23T08:20:58.335Z,11.06
2022-12-23T08:23:32.955Z,11.13
2022-12-23T08:26:05.132Z,11.17
2022-12-23T08:28:37.024Z,11.16
2022-12-23T08:31:10.212Z,11.15
2022-12-23T08:33:42.022Z,11.27
2022-12-23T08:36:22.467Z,11.34
2022-12-23T08:38:58.156Z,11.39
2022-12-23T08:41:32.147Z,11.43
2022-12-23T08:44:02.628Z,11.50
2022-12-23T08:46:32.839Z,11.56
2022-12-23T08:49:02.903Z,11.62
2022-12-23T08:51:33.306Z,11.59
2022-12-23T08:54:06.483Z,11.61
2022-12-23T08:56:39.849Z,11.59
2022-12-23T08:59:18.594Z,11.47
2022-12-23T09:01:50.476Z,11.43
2022-12-23T09:04:20.594Z,11.49
2022-12-23T09:06:50.635Z,11.54
2022-12-23T09:09:23.334Z,11.49
2022-12-23T09:11:53.376Z,11.48
2022-12-23T09:14:23.475Z,11.50
2022-12-23T09:16:53.913Z,11.59
2022-12-23T09:19:23.936Z,11.66
2022-12-23T09:21:53.952Z,11.70
2022-12-23T09:24:26.525Z,11.74
2022-12-23T09:26:56.531Z,11.72
2022-12-23T09:29:26.741Z,11.74
2022-12-23T09:31:56.836Z,11.76
2022-12-23T09:34:26.887Z,11.81
2022-12-23T09:36:56.891Z,11.83
2022-12-23T09:39:30.494Z,11.79
2022-12-23T09:42:09.098Z,11.87
2022-12-23T09:45:00.473Z,11.78
2022-12-23T09:47:34.158Z,11.72
2022-12-23T09:50:13.306Z,11.69
2022-12-23T09:52:56.058Z,11.70
2022-12-23T09:55:51.149Z,11.72
2022-12-23T09:58:33.255Z,11.81
2022-12-23T10:01:21.652Z,11.83
2022-12-23T10:04:34.092Z,11.87
2022-12-23T10:07:25.421Z,11.93
2022-12-23T10:09:59.164Z,12.01
2022-12-23T10:12:40.757Z,12.03
2022-12-23T10:15:26.978Z,11.83
2022-12-23T10:18:09.618Z,11.85
2022-12-23T10:20:50.082Z,11.80
2022-12-23T10:23:30.001Z,11.88
2022-12-23T10:26:01.059Z,11.84
2022-12-23T10:28:33.679Z,11.71
2022-12-23T10:31:40.256Z,11.92
2022-12-23T10:34:19.844Z,11.92
2022-12-23T10:37:04.007Z,12.15
2022-12-23T10:39:43.710Z,12.19
2022-12-23T10:42:28.470Z,12.28
2022-12-23T10:45:28.458Z,12.31
2022-12-23T10:48:20.927Z,12.51
2022-12-23T10:51:04.114Z,12.70
2022-12-23T10:53:46.903Z,12.74
2022-12-23T10:56:19.047Z,12.82
2022-12-23T10:58:55.512Z,12.92
2022-12-23T11:01:28.787Z,12.97
2022-12-23T11:04:08.995Z,12.99
2022-12-23T11:06:45.554Z,13.01
2022-12-23T11:09:22.032Z,13.02
2022-12-23T11:12:04.083Z,13.07
2022-12-23T11:14:40.034Z,13.07
2022-12-23T11:17:26.802Z,13.03
2022-12-23T11:20:15.212Z,13.04
2022-12-23T11:22:52.361Z,13.04
2022-12-23T11:25:35.884Z,13.00
2022-12-23T11:28:15.203Z,13.08
2022-12-23T11:30:57.615Z,13.10
2022-12-23T11:33:34.028Z,13.19
2022-12-23T11:36:11.133Z,13.27
2022-12-23T11:38:53.476Z,13.12
2022-12-23T11:41:26.885Z,13.20
2022-12-23T11:44:03.204Z,13.22
2022-12-23T11:46:36.466Z,13.28
2022-12-23T11:49:19.677Z,13.32
2022-12-23T11:52:02.476Z,13.28
2022-12-23T11:54:33.897Z,13.22
2022-12-23T11:57:08.532Z,13.23
2022-12-23T11:59:43.396Z,13.18
2022-12-23T12:02:23.702Z,13.22
2022-12-23T12:05:03.375Z,13.26
2022-12-23T12:07:34.640Z,13.22
2022-12-23T12:10:06.158Z,13.18
2022-12-23T12:12:36.326Z,13.18
2022-12-23T12:15:09.356Z,13.15
2022-12-23T12:17:46.944Z,13.04
2022-12-23T12:20:31.236Z,12.98
2022-12-23T12:23:08.863Z,12.91
2022-12-23T12:25:47.537Z,12.94
2022-12-23T12:28:24.351Z,12.78
2022-12-23T12:31:05.046Z,12.80
2022-12-23T12:33:43.842Z,12.77
2022-12-23T12:36:35.216Z,12.68
2022-12-23T12:39:05.242Z,12.73
2022-12-23T12:41:42.516Z,12.62
2022-12-23T12:44:33.286Z,12.71
2022-12-23T12:47:44.598Z,12.75
2022-12-23T12:50:16.366Z,12.75
2022-12-23T12:52:48.991Z,12.66
2022-12-23T12:55:27.926Z,12.58
2022-12-23T12:57:58.142Z,12.61
2022-12-23T13:00:28.637Z,12.64
2022-12-23T13:03:19.327Z,12.61
2022-12-23T13:06:06.740Z,12.61
2022-12-23T13:09:07.513Z,12.63
2022-12-23T13:11:47.569Z,12.65
2022-12-23T13:14:36.138Z,12.65
2022-12-23T13:17:20.719Z,12.61
2022-12-23T13:20:02.269Z,12.62
2022-12-23T13:22:36.949Z,12.77
2022-12-23T13:25:18.335Z,12.83
2022-12-23T13:27:58.775Z,12.88
2022-12-23T13:30:39.309Z,12.94
2022-12-23T13:33:28.217Z,12.95
2022-12-23T13:36:18.941Z,12.76
2022-12-23T13:39:19.493Z,12.87
2022-12-23T13:42:02.991Z,12.86
2022-12-23T13:44:37.046Z,12.80
2022-12-23T13:47:18.020Z,12.83
2022-12-23T13:50:05.615Z,12.85
2022-12-23T13:52:59.588Z,12.79
2022-12-23T13:56:04.877Z,12.86
2022-12-23T13:58:38.137Z,12.85
2022-12-23T14:01:35.569Z,12.85
2022-12-23T14:04:33.605Z,12.83
2022-12-23T14:07:08.163Z,12.83
2022-12-23T14:09:41.207Z,12.70
2022-12-23T14:12:23.534Z,12.44
2022-12-23T14:15:27.597Z,12.30
2022-12-23T14:18:18.677Z,12.25
2022-12-23T14:20:54.286Z,12.27
2022-12-23T14:23:50.102Z,12.18
2022-12-23T14:26:42.273Z,12.12
2022-12-23T14:29:37.706Z,12.06
2022-12-23T14:32:24.471Z,12.11
2022-12-23T14:35:27.222Z,12.07
2022-12-23T14:38:27.083Z,12.01
2022-12-23T14:41:39.743Z,12.10
2022-12-23T14:44:24.232Z,12.05
2022-12-23T14:46:59.787Z,12.07
2022-12-23T14:49:53.403Z,12.11
2022-12-23T14:52:50.780Z,12.09
2022-12-23T14:55:47.200Z,11.97
2022-12-23T14:59:10.058Z,12.00
2022-12-23T15:01:44.562Z,12.01
2022-12-23T15:04:26.831Z,12.11
2022-12-23T15:07:06.980Z,12.12
2022-12-23T15:09:42.662Z,12.18
2022-12-23T15:12:21.475Z,12.19
2022-12-23T15:14:58.701Z,12.17
2022-12-23T15:17:32.118Z,12.18
2022-12-23T15:20:19.205Z,12.22
2022-12-23T15:22:53.119Z,12.14
2022-12-23T15:25:28.767Z,12.22
2022-12-23T15:28:02.628Z,12.14
2022-12-23T15:30:39.186Z,12.14
2022-12-23T15:33:51.485Z,12.20
2022-12-23T15:36:04.637Z,12.23
2022-12-23T15:38:41.730Z,12.17
2022-12-23T15:41:22.407Z,12.04
2022-12-23T15:43:53.133Z,12.10
2022-12-23T15:46:30.096Z,12.07
2022-12-23T15:49:00.880Z,12.06
2022-12-23T15:52:05.832Z,12.06
2022-12-23T15:54:34.638Z,12.08
2022-12-23T15:57:07.168Z,12.11
2022-12-23T15:59:41.597Z,12.16
2022-12-23T16:02:58.606Z,12.14
2022-12-23T16:05:09.593Z,12.07
2022-12-23T16:07:43.218Z,12.11
2022-12-23T16:10:24.451Z,12.16
2022-12-23T16:12:55.381Z,12.16
2022-12-23T16:15:31.969Z,12.08
2022-12-23T16:18:24.149Z,12.03
2022-12-23T16:20:57.627Z,12.04
2022-12-23T16:23:32.697Z,12.09
2022-12-23T16:26:06.801Z,12.20
2022-12-23T16:28:43.249Z,12.08
2022-12-23T16:31:17.350Z,12.10
2022-12-23T16:33:53.955Z,12.18
2022-12-23T16:36:36.041Z,12.26
2022-12-23T16:39:22.262Z,12.28
2022-12-23T16:41:54.949Z,12.34
2022-12-23T16:44:24.909Z,12.41
2022-12-23T16:46:55.270Z,12.42
2022-12-23T16:49:33.399Z,12.38
2022-12-23T16:52:06.178Z,12.37
2022-12-23T16:54:36.305Z,12.36
2022-12-23T16:57:09.014Z,12.38
2022-12-23T16:59:41.218Z,12.42
2022-12-23T17:02:21.311Z,12.39
2022-12-23T17:04:51.368Z,12.37
2022-12-23T17:07:23.433Z,12.36
2022-12-23T17:09:53.416Z,12.44
2022-12-23T17:12:26.030Z,12.47
2022-12-23T17:14:56.138Z,12.45
2022-12-23T17:17:26.380Z,12.39
2022-12-23T17:19:57.705Z,12.43
2022-12-23T17:22:28.928Z,12.50
2022-12-23T17:24:58.955Z,12.40
2022-12-23T17:27:31.581Z,12.45
2022-12-23T17:30:01.619Z,12.45
2022-12-23T17:32:31.669Z,12.46
2022-12-23T17:35:01.740Z,12.32
2022-12-23T17:37:31.704Z,12.19
2022-12-23T17:40:01.702Z,12.28
2022-12-23T17:42:35.570Z,12.31
2022-12-23T17:45:05.785Z,12.33
2022-12-23T17:47:35.822Z,12.36
2022-12-23T17:50:07.182Z,12.26
2022-12-23T17:52:37.198Z,12.22
2022-12-23T17:55:09.113Z,12.21
2022-12-23T17:57:41.734Z,12.17
2022-12-23T18:00:13.898Z,12.21
2022-12-23T18:02:45.130Z,12.21
2022-12-23T18:05:27.681Z,12.19
2022-12-23T18:08:00.876Z,12.20
2022-12-23T18:10:37.367Z,12.16
2022-12-23T18:13:17.098Z,12.16
2022-12-23T18:15:48.382Z,12.11
2022-12-23T18:18:28.687Z,12.04
2022-12-23T18:21:02.031Z,11.94
2022-12-23T18:23:37.253Z,11.90
2022-12-23T18:26:07.437Z,11.87
2022-12-23T18:28:42.646Z,11.83
2022-12-23T18:31:19.147Z,11.78
2022-12-23T18:33:49.708Z,11.74
2022-12-23T18:36:25.981Z,11.69
2022-12-23T18:38:57.247Z,11.61
2022-12-23T18:41:29.035Z,11.51
2022-12-23T18:44:01.671Z,11.46
2022-12-23T18:46:31.732Z,11.38
2022-12-23T18:49:01.736Z,11.36
2022-12-23T18:51:31.822Z,11.30
2022-12-23T18:54:01.779Z,11.24
2022-12-23T18:56:31.785Z,11.26
2022-12-23T18:59:04.313Z,11.27
2022-12-23T19:01:34.470Z,11.20
2022-12-23T19:04:04.451Z,11.19
2022-12-23T19:06:34.439Z,11.16
2022-12-23T19:09:04.959Z,11.25
2022-12-23T19:11:35.725Z,11.05
2022-12-23T19:14:08.345Z,10.98
2022-12-23T19:16:38.521Z,10.97
2022-12-23T19:19:09.226Z,11.06
2022-12-23T19:21:39.594Z,11.08
2022-12-23T19:24:09.814Z,11.07
2022-12-23T19:26:39.916Z,11.18
2022-12-23T19:29:12.572Z,11.21
2022-12-23T19:31:43.360Z,11.35
2022-12-23T19:34:15.610Z,11.37
2022-12-23T19:36:46.772Z,11.39
2022-12-23T19:39:21.900Z,11.37
2022-12-23T19:41:51.950Z,11.34
2022-12-23T19:44:24.575Z,11.48
2022-12-23T19:46:54.670Z,11.55
2022-12-23T19:49:24.745Z,11.54
2022-12-23T19:51:55.149Z,11.45
2022-12-23T19:54:25.172Z,11.58
2022-12-23T19:56:55.821Z,11.72
2022-12-23T19:59:28.523Z,11.79
2022-12-23T20:01:58.821Z,11.87
2022-12-23T20:04:28.878Z,11.71
2022-12-23T20:06:59.177Z,11.56
2022-12-23T20:09:29.272Z,11.66
2022-12-23T20:11:59.319Z,11.77
2022-12-23T20:14:34.092Z,11.83
2022-12-23T20:17:04.799Z,11.89
2022-12-23T20:19:39.150Z,11.92
2022-12-23T20:22:13.863Z,11.91
2022-12-23T20:24:43.932Z,11.89
2022-12-23T20:27:15.959Z,11.90
2022-12-23T20:29:48.930Z,11.85
2022-12-23T20:32:19.035Z,11.75
2022-12-23T20:34:50.284Z,11.75
2022-12-23T20:37:20.342Z,11.59
2022-12-23T20:39:50.290Z,11.49
2022-12-23T20:42:20.413Z,11.37
2022-12-23T20:44:53.016Z,11.43
2022-12-23T20:47:23.046Z,11.53
2022-12-23T20:49:53.715Z,11.63
2022-12-23T20:52:23.710Z,11.50
2022-12-23T20:54:55.409Z,11.43
2022-12-23T20:57:25.501Z,11.36
2022-12-23T20:59:58.161Z,11.28
2022-12-23T21:02:28.298Z,11.23
2022-12-23T21:04:58.357Z,11.11
2022-12-23T21:07:28.996Z,11.01
2022-12-23T21:09:59.095Z,10.86
2022-12-23T21:12:29.134Z,10.99
2022-12-23T21:15:01.716Z,10.82
2022-12-23T21:17:33.819Z,10.69
2022-12-23T21:20:07.995Z,10.69
2022-12-23T21:22:38.180Z,10.62
2022-12-23T21:25:09.917Z,10.48
2022-12-23T21:27:39.954Z,10.45
2022-12-23T21:30:14.562Z,10.40
2022-12-23T21:32:44.554Z,10.33
2022-12-23T21:35:14.541Z,10.29
2022-12-23T21:37:44.561Z,10.23
2022-12-23T21:40:16.324Z,10.18
2022-12-23T21:42:46.287Z,10.07
2022-12-23T21:45:19.175Z,10.02
2022-12-23T21:47:49.192Z,9.93
2022-12-23T21:50:19.469Z,9.90
2022-12-23T21:52:49.552Z,9.88
2022-12-23T21:55:19.714Z,9.75
2022-12-23T21:57:50.117Z,9.69
2022-12-23T22:00:23.255Z,9.73
2022-12-23T22:02:53.264Z,9.85
2022-12-23T22:05:23.218Z,9.77
2022-12-23T22:07:53.349Z,9.71
2022-12-23T22:10:23.350Z,9.66
2022-12-23T22:12:53.369Z,9.66
2022-12-23T22:15:26.571Z,9.70
2022-12-23T22:17:56.550Z,9.73
2022-12-23T22:20:26.670Z,9.71
2022-12-23T22:22:57.035Z,9.61
2022-12-23T22:25:27.079Z,9.60
2022-12-23T22:27:57.102Z,9.57
2022-12-23T22:30:29.733Z,9.62
2022-12-23T22:32:59.741Z,9.55
2022-12-23T22:35:30.247Z,9.50
2022-12-23T22:38:00.503Z,9.55
2022-12-23T22:40:30.465Z,9.58
2022-12-23T22:43:00.456Z,9.51
2022-12-23T22:45:33.087Z,9.44
2022-12-23T22:48:03.191Z,9.35
2022-12-23T22:50:33.133Z,9.39
2022-12-23T22:53:03.110Z,9.43
2022-12-23T22:55:33.491Z,9.32
2022-12-23T22:58:03.467Z,9.31
2022-12-23T23:00:36.254Z,9.36
2022-12-23T23:03:06.827Z,9.27
2022-12-23T23:05:36.855Z,9.18
2022-12-23T23:08:07.483Z,9.13
2022-12-23T23:10:37.600Z,9.03
2022-12-23T23:13:07.562Z,9.02
2022-12-23T23:15:40.144Z,8.97
2022-12-23T23:18:10.246Z,8.88
2022-12-23T23:20:40.277Z,8.87
2022-12-23T23:23:10.255Z,8.86
2022-12-23T23:25:40.233Z,8.89
2022-12-23T23:28:11.830Z,8.79
2022-12-23T23:30:44.627Z,8.70
2022-12-23T23:33:15.073Z,8.70
2022-12-23T23:35:45.523Z,8.73
2022-12-23T23:38:15.647Z,8.61
2022-12-23T23:40:45.646Z,8.65
2022-12-23T23:43:15.675Z,8.85
2022-12-23T23:45:48.403Z,8.85
2022-12-23T23:48:18.663Z,8.72
2022-12-23T23:50:48.681Z,8.63
2022-12-23T23:53:19.312Z,8.41
2022-12-23T23:55:49.316Z,8.42
2022-12-23T23:58:19.305Z,8.42
